sensor_id;sensor_type;location;lat;lon;timestamp;pressure;altitude;pressure_sealevel;temperature;humidity
65190;BME280;51777;53.570;9.984;2023-03-04T00:01:39;101802.13;;;5.77;100.00
65190;BME280;51777;53.570;9.984;2023-03-04T00:04:04;101802.13;;;5.77;100.00
65190;BME280;51777;53.570;9.984;2023-03-04T00:06:56;101804.41;;;5.81;100.00
65190;BME280;51777;53.570;9.984;2023-03-04T00:09:21;101798.63;;;5.78;100.00
65190;BME280;51777;53.570;9.984;2023-03-04T00:11:47;101807.72;;;5.83;100.00
65190;BME280;51777;53.570;9.984;2023-03-04T00:14:12;101800.38;;;5.77;100.00
65190;BME280;51777;53.570;9.984;2023-03-04T00:16:38;101795.16;;;5.79;100.00
65190;BME280;51777;53.570;9.984;2023-03-04T00:19:03;101802.59;;;5.83;100.00
65190;BME280;51777;53.570;9.984;2023-03-04T00:21:28;101809.53;;;5.81;100.00
65190;BME280;51777;53.570;9.984;2023-03-04T00:24:04;101806.06;;;5.82;100.00
65190;BME280;51777;53.570;9.984;2023-03-04T00:26:30;101804.41;;;5.81;100.00
65190;BME280;51777;53.570;9.984;2023-03-04T00:28:56;101800.09;;;5.82;100.00
65190;BME280;51777;53.570;9.984;2023-03-04T00:31:21;101802.59;;;5.83;100.00
65190;BME280;51777;53.570;9.984;2023-03-04T00:33:46;101797.47;;;5.83;100.00
65190;BME280;51777;53.570;9.984;2023-03-04T00:36:12;101796.66;;;5.83;100.00
65190;BME280;51777;53.570;9.984;2023-03-04T00:38:37;101799.94;;;5.85;100.00
65190;BME280;51777;53.570;9.984;2023-03-04T00:41:03;101789.50;;;5.88;100.00
65190;BME280;51777;53.570;9.984;2023-03-04T00:43:28;101791.31;;;5.86;100.00
65190;BME280;51777;53.570;9.984;2023-03-04T00:45:54;101791.97;;;5.89;100.00
65190;BME280;51777;53.570;9.984;2023-03-04T00:48:19;101782.47;;;5.92;100.00
65190;BME280;51777;53.570;9.984;2023-03-04T00:50:45;101777.22;;;5.93;100.00
65190;BME280;51777;53.570;9.984;2023-03-04T00:53:10;101771.44;;;5.89;100.00
65190;BME280;51777;53.570;9.984;2023-03-04T00:55:36;101771.28;;;5.93;100.00
65190;BME280;51777;53.570;9.984;2023-03-04T00:58:01;101763.41;;;5.96;100.00
65190;BME280;51777;53.570;9.984;2023-03-04T01:00:26;101769.63;;;5.92;100.00
65190;BME280;51777;53.570;9.984;2023-03-04T01:02:52;101771.38;;;5.91;100.00
65190;BME280;51777;53.570;9.984;2023-03-04T01:05:17;101760.19;;;5.92;100.00
65190;BME280;51777;53.570;9.984;2023-03-04T01:07:43;101761.00;;;5.93;100.00
65190;BME280;51777;53.570;9.984;2023-03-04T01:10:11;101764.25;;;5.96;100.00
65190;BME280;51777;53.570;9.984;2023-03-04T01:12:36;101764.16;;;5.98;100.00
65190;BME280;51777;53.570;9.984;2023-03-04T01:15:02;101752.47;;;5.92;100.00
65190;BME280;51777;53.570;9.984;2023-03-04T01:17:28;101749.66;;;5.97;100.00
65190;BME280;51777;53.570;9.984;2023-03-04T01:19:53;101747.00;;;5.98;100.00
65190;BME280;51777;53.570;9.984;2023-03-04T01:22:19;101743.63;;;5.98;100.00
65190;BME280;51777;53.570;9.984;2023-03-04T01:24:44;101738.63;;;5.95;100.00
65190;BME280;51777;53.570;9.984;2023-03-04T01:27:10;101738.47;;;5.98;100.00
65190;BME280;51777;53.570;9.984;2023-03-04T01:29:36;101731.84;;;5.94;100.00
65190;BME280;51777;53.570;9.984;2023-03-04T01:32:01;101727.53;;;5.94;100.00
65190;BME280;51777;53.570;9.984;2023-03-04T01:34:27;101726.81;;;5.92;100.00
65190;BME280;51777;53.570;9.984;2023-03-04T01:36:52;101726.81;;;5.92;100.00
65190;BME280;51777;53.570;9.984;2023-03-04T01:39:17;101721.50;;;5.95;100.00
65190;BME280;51777;53.570;9.984;2023-03-04T01:41:43;101714.66;;;5.96;100.00
65190;BME280;51777;53.570;9.984;2023-03-04T01:44:09;101709.66;;;5.93;100.00
65190;BME280;51777;53.570;9.984;2023-03-04T01:46:35;101706.28;;;5.92;100.00
65190;BME280;51777;53.570;9.984;2023-03-04T01:49:01;101711.50;;;5.91;100.00
65190;BME280;51777;53.570;9.984;2023-03-04T01:51:26;101711.41;;;5.92;100.00
65190;BME280;51777;53.570;9.984;2023-03-04T01:53:52;101703.47;;;5.97;100.00
65190;BME280;51777;53.570;9.984;2023-03-04T01:56:26;101699.41;;;5.93;100.00
65190;BME280;51777;53.570;9.984;2023-03-04T02:01:54;101689.13;;;5.93;100.00
65190;BME280;51777;53.570;9.984;2023-03-04T02:04:23;101693.25;;;5.95;100.00
65190;BME280;51777;53.570;9.984;2023-03-04T02:06:50;101692.19;;;5.99;100.00
65190;BME280;51777;53.570;9.984;2023-03-04T02:09:17;101690.44;;;6.00;100.00
65190;BME280;51777;53.570;9.984;2023-03-04T02:11:44;101684.47;;;5.99;100.00
65190;BME280;51777;53.570;9.984;2023-03-04T02:14:11;101693.25;;;5.95;100.00
65190;BME280;51777;53.570;9.984;2023-03-04T02:16:38;101686.66;;;5.91;100.00
65190;BME280;51777;53.570;9.984;2023-03-04T02:19:08;101679.03;;;5.89;100.00
65190;BME280;51777;53.570;9.984;2023-03-04T02:21:36;101679.59;;;5.95;100.00
65190;BME280;51777;53.570;9.984;2023-03-04T02:27:02;101668.97;;;6.01;100.00
65190;BME280;51777;53.570;9.984;2023-03-04T02:29:28;101669.06;;;5.99;100.00
65190;BME280;51777;53.570;9.984;2023-03-04T02:31:53;101672.56;;;5.98;100.00
65190;BME280;51777;53.570;9.984;2023-03-04T02:34:26;101660.66;;;5.97;100.00
65190;BME280;51777;53.570;9.984;2023-03-04T02:36:53;101664.75;;;6.00;100.00
65190;BME280;51777;53.570;9.984;2023-03-04T02:41:46;101654.69;;;5.97;100.00
65190;BME280;51777;53.570;9.984;2023-03-04T02:44:39;101655.69;;;5.94;100.00
65190;BME280;51777;53.570;9.984;2023-03-04T02:47:08;101642.78;;;5.96;100.00
65190;BME280;51777;53.570;9.984;2023-03-04T02:49:36;101638.47;;;5.96;100.00
65190;BME280;51777;53.570;9.984;2023-03-04T02:52:13;101648.63;;;5.98;100.00
65190;BME280;51777;53.570;9.984;2023-03-04T02:54:38;101647.00;;;5.97;100.00
65190;BME280;51777;53.570;9.984;2023-03-04T02:57:06;101638.38;;;5.98;100.00
65190;BME280;51777;53.570;9.984;2023-03-04T02:59:34;101641.84;;;5.97;100.00
65190;BME280;51777;53.570;9.984;2023-03-04T03:01:59;101638.53;;;5.95;100.00
65190;BME280;51777;53.570;9.984;2023-03-04T03:04:25;101635.13;;;5.94;100.00
65190;BME280;51777;53.570;9.984;2023-03-04T03:06:51;101632.56;;;5.94;100.00
65190;BME280;51777;53.570;9.984;2023-03-04T03:09:17;101622.41;;;5.93;100.00
65190;BME280;51777;53.570;9.984;2023-03-04T03:11:42;101633.50;;;5.93;100.00
65190;BME280;51777;53.570;9.984;2023-03-04T03:14:08;101625.78;;;5.93;100.00
65190;BME280;51777;53.570;9.984;2023-03-04T03:16:33;101631.66;;;5.95;100.00
65190;BME280;51777;53.570;9.984;2023-03-04T03:18:59;101622.25;;;5.96;100.00
65190;BME280;51777;53.570;9.984;2023-03-04T03:21:25;101640.84;;;5.99;100.00
65190;BME280;51777;53.570;9.984;2023-03-04T03:23:50;101628.94;;;5.98;100.00
65190;BME280;51777;53.570;9.984;2023-03-04T03:26:15;101622.03;;;5.99;100.00
65190;BME280;51777;53.570;9.984;2023-03-04T03:28:41;101620.31;;;5.99;100.00
65190;BME280;51777;53.570;9.984;2023-03-04T03:31:07;101615.25;;;5.98;100.00
65190;BME280;51777;53.570;9.984;2023-03-04T03:33:32;101614.44;;;5.97;100.00
65190;BME280;51777;53.570;9.984;2023-03-04T03:35:58;101614.44;;;5.97;100.00
65190;BME280;51777;53.570;9.984;2023-03-04T03:38:24;101613.78;;;5.94;100.00
65190;BME280;51777;53.570;9.984;2023-03-04T03:40:50;101605.91;;;5.97;100.00
65190;BME280;51777;53.570;9.984;2023-03-04T03:43:15;101604.19;;;5.97;100.00
65190;BME280;51777;53.570;9.984;2023-03-04T03:45:41;101611.88;;;5.97;100.00
65190;BME280;51777;53.570;9.984;2023-03-04T03:48:06;101604.69;;;5.88;100.00
65190;BME280;51777;53.570;9.984;2023-03-04T03:50:32;101609.22;;;5.84;100.00
65190;BME280;51777;53.570;9.984;2023-03-04T03:52:58;101609.22;;;5.84;100.00
65190;BME280;51777;53.570;9.984;2023-03-04T03:55:24;101604.34;;;5.80;100.00
65190;BME280;51777;53.570;9.984;2023-03-04T03:57:49;101607.91;;;5.77;100.00
65190;BME280;51777;53.570;9.984;2023-03-04T04:00:15;101602.78;;;5.77;100.00
65190;BME280;51777;53.570;9.984;2023-03-04T04:02:41;101594.06;;;5.80;100.00
65190;BME280;51777;53.570;9.984;2023-03-04T04:05:07;101593.16;;;5.81;100.00
65190;BME280;51777;53.570;9.984;2023-03-04T04:07:33;101583.81;;;5.80;100.00
65190;BME280;51777;53.570;9.984;2023-03-04T04:09:59;101591.59;;;5.78;100.00
65190;BME280;51777;53.570;9.984;2023-03-04T04:12:24;101590.69;;;5.79;100.00
65190;BME280;51777;53.570;9.984;2023-03-04T04:14:50;101584.63;;;5.80;100.00
65190;BME280;51777;53.570;9.984;2023-03-04T04:17:19;101582.78;;;5.82;100.00
65190;BME280;51777;53.570;9.984;2023-03-04T04:19:45;101596.47;;;5.83;100.00
65190;BME280;51777;53.570;9.984;2023-03-04T04:22:13;101591.25;;;5.84;100.00
65190;BME280;51777;53.570;9.984;2023-03-04T04:24:39;101585.81;;;5.89;100.00
65190;BME280;51777;53.570;9.984;2023-03-04T04:27:04;101583.91;;;5.93;100.00
65190;BME280;51777;53.570;9.984;2023-03-04T04:29:30;101589.22;;;5.89;100.00
65190;BME280;51777;53.570;9.984;2023-03-04T04:31:55;101582.44;;;5.88;100.00
65190;BME280;51777;53.570;9.984;2023-03-04T04:34:21;101590.13;;;5.88;100.00
65190;BME280;51777;53.570;9.984;2023-03-04T04:36:47;101587.94;;;5.97;100.00
65190;BME280;51777;53.570;9.984;2023-03-04T04:39:13;101588.78;;;5.97;100.00
65190;BME280;51777;53.570;9.984;2023-03-04T04:41:40;101587.66;;;6.01;100.00
65190;BME280;51777;53.570;9.984;2023-03-04T04:44:06;101592.88;;;6.00;100.00
65190;BME280;51777;53.570;9.984;2023-03-04T04:46:32;101594.44;;;6.02;100.00
65190;BME280;51777;53.570;9.984;2023-03-04T04:48:58;101582.63;;;6.00;100.00
65190;BME280;51777;53.570;9.984;2023-03-04T04:51:24;101580.78;;;6.02;100.00
65190;BME280;51777;53.570;9.984;2023-03-04T04:53:49;101576.38;;;6.04;100.00
65190;BME280;51777;53.570;9.984;2023-03-04T04:56:18;101569.41;;;6.06;100.00
65190;BME280;51777;53.570;9.984;2023-03-04T04:58:44;101568.66;;;6.04;100.00
65190;BME280;51777;53.570;9.984;2023-03-04T05:01:10;101570.31;;;6.05;100.00
65190;BME280;51777;53.570;9.984;2023-03-04T05:03:36;101574.53;;;6.06;100.00
65190;BME280;51777;53.570;9.984;2023-03-04T05:06:04;101573.59;;;6.07;100.00
65190;BME280;51777;53.570;9.984;2023-03-04T05:08:30;101567.66;;;6.06;100.00
65190;BME280;51777;53.570;9.984;2023-03-04T05:10:56;101561.25;;;5.99;100.00
65190;BME280;51777;53.570;9.984;2023-03-04T05:13:21;101563.94;;;5.98;100.00
65190;BME280;51777;53.570;9.984;2023-03-04T05:15:47;101558.13;;;5.94;100.00
65190;BME280;51777;53.570;9.984;2023-03-04T05:18:12;101569.44;;;5.92;100.00
65190;BME280;51777;53.570;9.984;2023-03-04T05:20:38;101564.41;;;5.90;100.00
65190;BME280;51777;53.570;9.984;2023-03-04T05:23:03;101561.16;;;5.86;100.00
65190;BME280;51777;53.570;9.984;2023-03-04T05:25:29;101567.13;;;5.87;100.00
65190;BME280;51777;53.570;9.984;2023-03-04T05:27:54;101571.44;;;5.86;100.00
65190;BME280;51777;53.570;9.984;2023-03-04T05:30:19;101569.59;;;5.88;100.00
65190;BME280;51777;53.570;9.984;2023-03-04T05:32:45;101574.09;;;5.85;100.00
65190;BME280;51777;53.570;9.984;2023-03-04T05:35:10;101576.66;;;5.85;100.00
65190;BME280;51777;53.570;9.984;2023-03-04T05:37:36;101576.75;;;5.83;100.00
65190;BME280;51777;53.570;9.984;2023-03-04T05:40:02;101582.78;;;5.82;100.00
65190;BME280;51777;53.570;9.984;2023-03-04T05:42:27;101584.53;;;5.82;100.00
65190;BME280;51777;53.570;9.984;2023-03-04T05:44:52;101581.34;;;5.78;100.00
65190;BME280;51777;53.570;9.984;2023-03-04T05:47:18;101573.28;;;5.84;100.00
65190;BME280;51777;53.570;9.984;2023-03-04T05:49:43;101580.06;;;5.85;100.00
65190;BME280;51777;53.570;9.984;2023-03-04T05:52:09;101583.06;;;5.78;100.00
65190;BME280;51777;53.570;9.984;2023-03-04T05:54:35;101584.91;;;5.76;100.00
65190;BME280;51777;53.570;9.984;2023-03-04T05:57:00;101585.03;;;5.74;100.00
65190;BME280;51777;53.570;9.984;2023-03-04T05:59:26;101592.53;;;5.77;100.00
65190;BME280;51777;53.570;9.984;2023-03-04T06:01:52;101592.31;;;5.80;100.00
65190;BME280;51777;53.570;9.984;2023-03-04T06:04:18;101597.19;;;5.85;100.00
65190;BME280;51777;53.570;9.984;2023-03-04T06:06:44;101586.75;;;5.74;100.00
65190;BME280;51777;53.570;9.984;2023-03-04T06:09:13;101591.34;;;5.83;100.00
65190;BME280;51777;53.570;9.984;2023-03-04T06:11:39;101590.41;;;5.84;100.00
65190;BME280;51777;53.570;9.984;2023-03-04T06:14:05;101591.34;;;5.83;100.00
65190;BME280;51777;53.570;9.984;2023-03-04T06:16:30;101593.81;;;5.84;100.00
65190;BME280;51777;53.570;9.984;2023-03-04T06:18:55;101586.94;;;5.85;100.00
65190;BME280;51777;53.570;9.984;2023-03-04T06:21:21;101599.66;;;5.86;100.00
65190;BME280;51777;53.570;9.984;2023-03-04T06:23:46;101599.75;;;5.85;100.00
65190;BME280;51777;53.570;9.984;2023-03-04T06:26:11;101599.50;;;5.75;100.00
65190;BME280;51777;53.570;9.984;2023-03-04T06:28:40;101605.34;;;5.77;100.00
65190;BME280;51777;53.570;9.984;2023-03-04T06:31:15;101608.09;;;5.74;100.00
65190;BME280;51777;53.570;9.984;2023-03-04T06:33:40;101607.47;;;5.71;100.00
65190;BME280;51777;53.570;9.984;2023-03-04T06:36:06;101607.09;;;5.77;100.00
65190;BME280;51777;53.570;9.984;2023-03-04T06:38:31;101610.31;;;5.66;100.00
65190;BME280;51777;53.570;9.984;2023-03-04T06:41:05;101611.94;;;5.67;100.00
65190;BME280;51777;53.570;9.984;2023-03-04T06:43:30;101616.97;;;5.69;100.00
65190;BME280;51777;53.570;9.984;2023-03-04T06:45:56;101613.41;;;5.57;100.00
65190;BME280;51777;53.570;9.984;2023-03-04T06:48:21;101617.28;;;5.64;100.00
65190;BME280;51777;53.570;9.984;2023-03-04T06:50:47;101617.28;;;5.64;100.00
65190;BME280;51777;53.570;9.984;2023-03-04T06:53:12;101614.50;;;5.67;100.00
65190;BME280;51777;53.570;9.984;2023-03-04T06:55:37;101607.75;;;5.66;100.00
65190;BME280;51777;53.570;9.984;2023-03-04T06:58:04;101622.31;;;5.66;100.00
65190;BME280;51777;53.570;9.984;2023-03-04T07:00:29;101618.81;;;5.67;100.00
65190;BME280;51777;53.570;9.984;2023-03-04T07:02:57;101621.28;;;5.68;100.00
65190;BME280;51777;53.570;9.984;2023-03-04T07:05:22;101619.66;;;5.67;100.00
65190;BME280;51777;53.570;9.984;2023-03-04T07:07:48;101617.09;;;5.67;100.00
65190;BME280;51777;53.570;9.984;2023-03-04T07:10:14;101614.25;;;5.72;100.00
65190;BME280;51777;53.570;9.984;2023-03-04T07:12:39;101620.03;;;5.75;100.00
65190;BME280;51777;53.570;9.984;2023-03-04T07:15:05;101618.00;;;5.80;100.00
65190;BME280;51777;53.570;9.984;2023-03-04T07:17:30;101629.75;;;5.84;100.00
65190;BME280;51777;53.570;9.984;2023-03-04T07:19:56;101630.47;;;5.86;100.00
65190;BME280;51777;53.570;9.984;2023-03-04T07:22:21;101629.06;;;5.81;100.00
65190;BME280;51777;53.570;9.984;2023-03-04T07:24:47;101635.59;;;5.86;100.00
65190;BME280;51777;53.570;9.984;2023-03-04T07:27:13;101631.75;;;5.94;100.00
65190;BME280;51777;53.570;9.984;2023-03-04T07:29:38;101629.19;;;5.94;100.00
65190;BME280;51777;53.570;9.984;2023-03-04T07:32:08;101631.03;;;5.92;100.00
65190;BME280;51777;53.570;9.984;2023-03-04T07:34:33;101635.03;;;5.81;100.00
65190;BME280;51777;53.570;9.984;2023-03-04T07:36:59;101626.16;;;5.73;100.00
65190;BME280;51777;53.570;9.984;2023-03-04T07:39:24;101630.38;;;5.74;100.00
65190;BME280;51777;53.570;9.984;2023-03-04T07:41:49;101631.75;;;5.79;100.00
65190;BME280;51777;53.570;9.984;2023-03-04T07:44:15;101640.38;;;5.64;100.00
65190;BME280;51777;53.570;9.984;2023-03-04T07:46:44;101638.34;;;5.69;100.00
65190;BME280;51777;53.570;9.984;2023-03-04T07:49:13;101630.28;;;5.75;100.00
65190;BME280;51777;53.570;9.984;2023-03-04T07:51:49;101635.84;;;5.82;100.00
65190;BME280;51777;53.570;9.984;2023-03-04T07:54:15;101640.53;;;5.75;100.00
65190;BME280;51777;53.570;9.984;2023-03-04T07:56:40;101641.81;;;5.82;100.00
65190;BME280;51777;53.570;9.984;2023-03-04T07:59:06;101646.94;;;5.82;100.00
65190;BME280;51777;53.570;9.984;2023-03-04T08:01:34;101644.03;;;5.74;100.00
65190;BME280;51777;53.570;9.984;2023-03-04T08:04:01;101644.38;;;5.82;100.00
65190;BME280;51777;53.570;9.984;2023-03-04T08:06:27;101641.66;;;5.85;100.00
65190;BME280;51777;53.570;9.984;2023-03-04T08:09:01;101649.50;;;5.82;100.00
65190;BME280;51777;53.570;9.984;2023-03-04T08:11:28;101647.25;;;5.92;100.00
65190;BME280;51777;53.570;9.984;2023-03-04T08:13:54;101655.03;;;5.91;100.00
65190;BME280;51777;53.570;9.984;2023-03-04T08:16:21;101655.50;;;5.97;100.00
65190;BME280;51777;53.570;9.984;2023-03-04T08:18:49;101660.56;;;5.99;100.00
65190;BME280;51777;53.570;9.984;2023-03-04T08:21:16;101663.56;;;6.05;100.00
65190;BME280;51777;53.570;9.984;2023-03-04T08:23:44;101663.47;;;6.07;100.00
65190;BME280;51777;53.570;9.984;2023-03-04T08:26:18;101673.75;;;5.93;100.00
65190;BME280;51777;53.570;9.984;2023-03-04T08:28:44;101667.25;;;6.01;100.00
65190;BME280;51777;53.570;9.984;2023-03-04T08:31:11;101665.13;;;5.94;100.00
65190;BME280;51777;53.570;9.984;2023-03-04T08:33:37;101671.84;;;5.96;100.00
65190;BME280;51777;53.570;9.984;2023-03-04T08:36:06;101677.41;;;6.03;100.00
65190;BME280;51777;53.570;9.984;2023-03-04T08:38:32;101660.16;;;6.05;100.00
65190;BME280;51777;53.570;9.984;2023-03-04T08:40:57;101673.19;;;6.02;100.00
65190;BME280;51777;53.570;9.984;2023-03-04T08:43:24;101680.69;;;6.05;100.00
65190;BME280;51777;53.570;9.984;2023-03-04T08:45:52;101665.78;;;5.97;100.00
65190;BME280;51777;53.570;9.984;2023-03-04T08:48:18;101671.00;;;5.96;100.00
65190;BME280;51777;53.570;9.984;2023-03-04T08:50:44;101671.00;;;5.96;100.00
65190;BME280;51777;53.570;9.984;2023-03-04T08:53:12;101672.00;;;5.93;100.00
65190;BME280;51777;53.570;9.984;2023-03-04T08:55:40;101669.28;;;5.96;100.00
65190;BME280;51777;53.570;9.984;2023-03-04T08:58:07;101670.00;;;5.98;100.00
65190;BME280;51777;53.570;9.984;2023-03-04T09:00:35;101669.16;;;5.98;100.00
65190;BME280;51777;53.570;9.984;2023-03-04T09:03:01;101670.16;;;6.09;100.00
65190;BME280;51777;53.570;9.984;2023-03-04T09:05:28;101680.06;;;6.15;100.00
65190;BME280;51777;53.570;9.984;2023-03-04T09:07:54;101675.94;;;6.13;100.00
65190;BME280;51777;53.570;9.984;2023-03-04T09:10:19;101674.72;;;6.18;100.00
65190;BME280;51777;53.570;9.984;2023-03-04T09:12:44;101672.16;;;6.18;100.00
65190;BME280;51777;53.570;9.984;2023-03-04T09:15:11;101682.69;;;6.28;100.00
65190;BME280;51777;53.570;9.984;2023-03-04T09:17:37;101675.09;;;6.12;100.00
65190;BME280;51777;53.570;9.984;2023-03-04T09:20:03;101685.50;;;5.97;100.00
65190;BME280;51777;53.570;9.984;2023-03-04T09:22:29;101683.72;;;6.11;100.00
65190;BME280;51777;53.570;9.984;2023-03-04T09:24:54;101684.66;;;6.10;100.00
65190;BME280;51777;53.570;9.984;2023-03-04T09:27:20;101685.56;;;6.09;100.00
65190;BME280;51777;53.570;9.984;2023-03-04T09:29:45;101673.91;;;6.18;100.00
65190;BME280;51777;53.570;9.984;2023-03-04T09:32:11;101674.25;;;6.26;100.00
65190;BME280;51777;53.570;9.984;2023-03-04T09:34:36;101680.69;;;6.33;100.00
65190;BME280;51777;53.570;9.984;2023-03-04T09:37:02;101684.44;;;6.28;100.00
65190;BME280;51777;53.570;9.984;2023-03-04T09:39:27;101689.28;;;6.32;100.00
65190;BME280;51777;53.570;9.984;2023-03-04T09:41:55;101671.88;;;6.23;100.00
65190;BME280;51777;53.570;9.984;2023-03-04T09:44:23;101677.03;;;6.23;100.00
65190;BME280;51777;53.570;9.984;2023-03-04T09:46:51;101678.78;;;6.23;100.00
65190;BME280;51777;53.570;9.984;2023-03-04T09:49:18;101671.78;;;6.25;100.00
65190;BME280;51777;53.570;9.984;2023-03-04T09:54:53;101669.59;;;6.33;100.00
65190;BME280;51777;53.570;9.984;2023-03-04T10:00:13;101678.78;;;6.23;100.00
65190;BME280;51777;53.570;9.984;2023-03-04T10:08:27;101672.59;;;6.39;100.00
65190;BME280;51777;53.570;9.984;2023-03-04T10:10:57;101675.31;;;6.51;100.00
65190;BME280;51777;53.570;9.984;2023-03-04T10:13:44;101665.41;;;6.44;100.00
65190;BME280;51777;53.570;9.984;2023-03-04T10:16:38;101678.75;;;6.64;100.00
65190;BME280;51777;53.570;9.984;2023-03-04T10:19:18;101658.06;;;6.92;100.00
65190;BME280;51777;53.570;9.984;2023-03-04T10:21:46;101673.19;;;6.84;100.00
65190;BME280;51777;53.570;9.984;2023-03-04T10:24:20;101671.19;;;6.75;100.00
65190;BME280;51777;53.570;9.984;2023-03-04T10:26:55;101662.44;;;6.77;100.00
65190;BME280;51777;53.570;9.984;2023-03-04T10:29:23;101664.19;;;6.77;100.00
65190;BME280;51777;53.570;9.984;2023-03-04T10:31:49;101672.13;;;6.74;100.00
65190;BME280;51777;53.570;9.984;2023-03-04T10:34:16;101669.88;;;6.82;100.00
65190;BME280;51777;53.570;9.984;2023-03-04T10:36:58;101678.84;;;6.89;100.00
65190;BME280;51777;53.570;9.984;2023-03-04T10:39:37;101668.28;;;7.06;100.00
65190;BME280;51777;53.570;9.984;2023-03-04T10:42:23;101667.69;;;7.16;100.00
65190;BME280;51777;53.570;9.984;2023-03-04T10:44:54;101689.63;;;7.21;100.00
65190;BME280;51777;53.570;9.984;2023-03-04T10:47:23;101684.66;;;7.31;100.00
65190;BME280;51777;53.570;9.984;2023-03-04T10:49:52;101693.84;;;7.22;100.00
65190;BME280;51777;53.570;9.984;2023-03-04T10:52:28;101675.59;;;7.13;100.00
65190;BME280;51777;53.570;9.984;2023-03-04T10:54:56;101670.69;;;7.35;100.00
65190;BME280;51777;53.570;9.984;2023-03-04T10:57:33;101691.28;;;7.48;100.00
65190;BME280;51777;53.570;9.984;2023-03-04T11:02:44;101687.09;;;7.72;100.00
65190;BME280;51777;53.570;9.984;2023-03-04T11:07:39;101683.84;;;8.07;100.00
65190;BME280;51777;53.570;9.984;2023-03-04T11:10:17;101690.72;;;8.68;100.00
65190;BME280;51777;53.570;9.984;2023-03-04T11:13:02;101691.84;;;8.88;100.00
65190;BME280;51777;53.570;9.984;2023-03-04T11:18:16;101687.19;;;8.93;100.00
65190;BME280;51777;53.570;9.984;2023-03-04T11:20:45;101680.28;;;8.46;100.00
65190;BME280;51777;53.570;9.984;2023-03-04T11:23:43;101678.00;;;8.65;100.00
65190;BME280;51777;53.570;9.984;2023-03-04T11:26:17;101681.59;;;8.51;100.00
65190;BME280;51777;53.570;9.984;2023-03-04T11:31:32;101676.50;;;8.13;100.00
65190;BME280;51777;53.570;9.984;2023-03-04T11:34:23;101668.09;;;7.99;100.00
65190;BME280;51777;53.570;9.984;2023-03-04T11:37:00;101661.72;;;7.91;100.00
65190;BME280;51777;53.570;9.984;2023-03-04T11:39:40;101669.16;;;7.71;100.00
65190;BME280;51777;53.570;9.984;2023-03-04T11:42:20;101671.53;;;7.74;100.00
65190;BME280;51777;53.570;9.984;2023-03-04T11:44:47;101668.50;;;7.92;100.00
65190;BME280;51777;53.570;9.984;2023-03-04T11:53:23;101664.53;;;7.76;100.00
65190;BME280;51777;53.570;9.984;2023-03-04T11:56:14;101656.78;;;7.76;100.00
65190;BME280;51777;53.570;9.984;2023-03-04T11:59:15;101653.44;;;8.12;100.00
65190;BME280;51777;53.570;9.984;2023-03-04T12:10:27;101647.66;;;8.58;100.00
65190;BME280;51777;53.570;9.984;2023-03-04T12:18:43;101642.66;;;8.31;100.00
65190;BME280;51777;53.570;9.984;2023-03-04T12:21:21;101642.16;;;8.25;100.00
65190;BME280;51777;53.570;9.984;2023-03-04T12:23:58;101639.56;;;8.38;100.00
65190;BME280;51777;53.570;9.984;2023-03-04T12:26:43;101626.56;;;8.03;100.00
65190;BME280;51777;53.570;9.984;2023-03-04T12:32:47;101624.66;;;7.94;100.00
65190;BME280;51777;53.570;9.984;2023-03-04T12:36:00;101628.34;;;7.90;100.00
65190;BME280;51777;53.570;9.984;2023-03-04T12:41:18;101618.47;;;7.97;100.00
65190;BME280;51777;53.570;9.984;2023-03-04T12:49:14;101614.16;;;7.84;100.00
65190;BME280;51777;53.570;9.984;2023-03-04T12:52:10;101600.63;;;7.93;100.00
65190;BME280;51777;53.570;9.984;2023-03-04T12:54:44;101608.19;;;7.84;100.00
65190;BME280;51777;53.570;9.984;2023-03-04T12:57:16;101613.22;;;8.22;100.00
65190;BME280;51777;53.570;9.984;2023-03-04T13:10:46;101611.09;;;8.03;100.00
65190;BME280;51777;53.570;9.984;2023-03-04T13:13:40;101608.06;;;8.22;100.00
65190;BME280;51777;53.570;9.984;2023-03-04T13:18:35;101614.41;;;8.42;100.00
65190;BME280;51777;53.570;9.984;2023-03-04T13:21:33;101616.59;;;8.59;100.00
65190;BME280;51777;53.570;9.984;2023-03-04T13:24:52;101605.13;;;8.63;100.00
65190;BME280;51777;53.570;9.984;2023-03-04T13:27:47;101604.28;;;8.87;100.00
65190;BME280;51777;53.570;9.984;2023-03-04T13:32:57;101597.94;;;8.91;100.00
65190;BME280;51777;53.570;9.984;2023-03-04T13:43:48;101607.41;;;8.79;100.00
65190;BME280;51777;53.570;9.984;2023-03-04T13:51:39;101604.59;;;8.47;100.00
65190;BME280;51777;53.570;9.984;2023-03-04T13:54:31;101607.41;;;8.44;100.00
65190;BME280;51777;53.570;9.984;2023-03-04T13:59:28;101610.34;;;8.50;100.00
65190;BME280;51777;53.570;9.984;2023-03-04T14:02:19;101607.50;;;8.30;100.00
65190;BME280;51777;53.570;9.984;2023-03-04T14:07:43;101611.03;;;7.92;100.00
65190;BME280;51777;53.570;9.984;2023-03-04T14:10:22;101611.03;;;7.92;100.00
65190;BME280;51777;53.570;9.984;2023-03-04T14:12:59;101611.69;;;7.83;100.00
65190;BME280;51777;53.570;9.984;2023-03-04T14:15:26;101597.19;;;7.82;100.00
65190;BME280;51777;53.570;9.984;2023-03-04T14:17:56;101602.44;;;8.04;100.00
65190;BME280;51777;53.570;9.984;2023-03-04T14:20:32;101595.31;;;8.20;100.00
65190;BME280;51777;53.570;9.984;2023-03-04T14:23:00;101603.72;;;8.35;100.00
65190;BME280;51777;53.570;9.984;2023-03-04T14:25:28;101599.94;;;8.15;100.00
65190;BME280;51777;53.570;9.984;2023-03-04T14:28:11;101599.72;;;8.18;100.00
65190;BME280;51777;53.570;9.984;2023-03-04T14:30:37;101605.03;;;8.04;100.00
65190;BME280;51777;53.570;9.984;2023-03-04T14:33:06;101602.78;;;8.00;100.00
65190;BME280;51777;53.570;9.984;2023-03-04T14:35:33;101602.59;;;7.90;100.00
65190;BME280;51777;53.570;9.984;2023-03-04T14:38:03;101598.75;;;7.72;100.00